sensor_id;sensor_type;location;lat;lon;timestamp;P1;durP1;ratioP1;P2;durP2;ratioP2
58238;SDS011;44037;55.638;37.356;2024-02-28T00:00:27;9.55;;;4.53;;
58238;SDS011;44037;55.638;37.356;2024-02-28T00:02:54;11.27;;;5.20;;
58238;SDS011;44037;55.638;37.356;2024-02-28T00:05:21;10.38;;;5.03;;
58238;SDS011;44037;55.638;37.356;2024-02-28T00:07:48;9.20;;;4.15;;
58238;SDS011;44037;55.638;37.356;2024-02-28T00:10:18;8.35;;;4.97;;
58238;SDS011;44037;55.638;37.356;2024-02-28T00:12:46;9.75;;;4.53;;
58238;SDS011;44037;55.638;37.356;2024-02-28T00:15:14;6.72;;;3.88;;
58238;SDS011;44037;55.638;37.356;2024-02-28T00:17:42;10.65;;;5.88;;
58238;SDS011;44037;55.638;37.356;2024-02-28T00:20:09;6.05;;;4.13;;
58238;SDS011;44037;55.638;37.356;2024-02-28T00:22:37;8.88;;;5.22;;
58238;SDS011;44037;55.638;37.356;2024-02-28T00:25:04;9.23;;;4.28;;
58238;SDS011;44037;55.638;37.356;2024-02-28T00:27:33;6.88;;;4.15;;
58238;SDS011;44037;55.638;37.356;2024-02-28T00:30:01;9.15;;;5.20;;
58238;SDS011;44037;55.638;37.356;2024-02-28T00:32:32;9.13;;;4.63;;
58238;SDS011;44037;55.638;37.356;2024-02-28T00:34:59;9.40;;;4.90;;
58238;SDS011;44037;55.638;37.356;2024-02-28T00:37:27;7.50;;;4.90;;
58238;SDS011;44037;55.638;37.356;2024-02-28T00:39:54;10.73;;;4.95;;
58238;SDS011;44037;55.638;37.356;2024-02-28T00:42:21;11.75;;;5.13;;
58238;SDS011;44037;55.638;37.356;2024-02-28T00:44:48;9.98;;;5.18;;
58238;SDS011;44037;55.638;37.356;2024-02-28T00:47:16;9.75;;;4.95;;
58238;SDS011;44037;55.638;37.356;2024-02-28T00:49:45;11.52;;;5.45;;
58238;SDS011;44037;55.638;37.356;2024-02-28T00:52:12;9.90;;;5.32;;
58238;SDS011;44037;55.638;37.356;2024-02-28T00:54:39;13.15;;;4.80;;
58238;SDS011;44037;55.638;37.356;2024-02-28T00:57:07;8.10;;;5.03;;
58238;SDS011;44037;55.638;37.356;2024-02-28T00:59:34;11.60;;;5.28;;
58238;SDS011;44037;55.638;37.356;2024-02-28T01:02:01;9.38;;;5.35;;
58238;SDS011;44037;55.638;37.356;2024-02-28T01:04:29;10.45;;;5.90;;
58238;SDS011;44037;55.638;37.356;2024-02-28T01:06:58;9.82;;;5.40;;
58238;SDS011;44037;55.638;37.356;2024-02-28T01:09:25;9.05;;;4.90;;
58238;SDS011;44037;55.638;37.356;2024-02-28T01:11:53;11.60;;;5.63;;
58238;SDS011;44037;55.638;37.356;2024-02-28T01:14:20;10.85;;;5.82;;
58238;SDS011;44037;55.638;37.356;2024-02-28T01:16:47;13.05;;;4.95;;
58238;SDS011;44037;55.638;37.356;2024-02-28T01:19:15;8.52;;;4.88;;
58238;SDS011;44037;55.638;37.356;2024-02-28T01:21:43;12.30;;;5.28;;
58238;SDS011;44037;55.638;37.356;2024-02-28T01:24:12;10.05;;;4.78;;
58238;SDS011;44037;55.638;37.356;2024-02-28T01:26:39;8.30;;;4.60;;
58238;SDS011;44037;55.638;37.356;2024-02-28T01:29:06;11.50;;;4.97;;
58238;SDS011;44037;55.638;37.356;2024-02-28T01:31:34;7.75;;;4.43;;
58238;SDS011;44037;55.638;37.356;2024-02-28T01:34:02;9.40;;;5.03;;
58238;SDS011;44037;55.638;37.356;2024-02-28T01:36:29;8.48;;;4.75;;
58238;SDS011;44037;55.638;37.356;2024-02-28T01:38:56;8.35;;;4.97;;
58238;SDS011;44037;55.638;37.356;2024-02-28T01:41:25;10.02;;;5.07;;
58238;SDS011;44037;55.638;37.356;2024-02-28T01:43:52;12.10;;;5.53;;
58238;SDS011;44037;55.638;37.356;2024-02-28T01:46:20;8.35;;;4.65;;
58238;SDS011;44037;55.638;37.356;2024-02-28T01:48:51;9.93;;;4.90;;
58238;SDS011;44037;55.638;37.356;2024-02-28T01:51:19;10.30;;;5.50;;
58238;SDS011;44037;55.638;37.356;2024-02-28T01:53:47;10.93;;;5.32;;
58238;SDS011;44037;55.638;37.356;2024-02-28T01:56:16;9.10;;;5.07;;
58238;SDS011;44037;55.638;37.356;2024-02-28T01:58:47;12.82;;;5.22;;
58238;SDS011;44037;55.638;37.356;2024-02-28T02:01:15;11.95;;;5.70;;
58238;SDS011;44037;55.638;37.356;2024-02-28T02:03:43;11.85;;;5.78;;
58238;SDS011;44037;55.638;37.356;2024-02-28T02:06:11;10.48;;;5.80;;
58238;SDS011;44037;55.638;37.356;2024-02-28T02:08:38;9.20;;;4.97;;
58238;SDS011;44037;55.638;37.356;2024-02-28T02:11:06;12.50;;;5.70;;
58238;SDS011;44037;55.638;37.356;2024-02-28T02:13:33;14.18;;;5.75;;
58238;SDS011;44037;55.638;37.356;2024-02-28T02:16:02;6.93;;;4.32;;
58238;SDS011;44037;55.638;37.356;2024-02-28T02:18:31;10.43;;;5.85;;
58238;SDS011;44037;55.638;37.356;2024-02-28T02:20:59;9.65;;;5.68;;
58238;SDS011;44037;55.638;37.356;2024-02-28T02:23:33;13.15;;;5.80;;
58238;SDS011;44037;55.638;37.356;2024-02-28T02:26:04;10.85;;;5.45;;
58238;SDS011;44037;55.638;37.356;2024-02-28T02:28:32;12.88;;;5.50;;
58238;SDS011;44037;55.638;37.356;2024-02-28T02:30:59;11.20;;;4.95;;
58238;SDS011;44037;55.638;37.356;2024-02-28T02:33:27;12.65;;;5.82;;
58238;SDS011;44037;55.638;37.356;2024-02-28T02:35:54;10.23;;;5.20;;
58238;SDS011;44037;55.638;37.356;2024-02-28T02:38:21;14.40;;;5.53;;
58238;SDS011;44037;55.638;37.356;2024-02-28T02:40:50;10.23;;;5.55;;
58238;SDS011;44037;55.638;37.356;2024-02-28T02:43:18;11.68;;;5.30;;
58238;SDS011;44037;55.638;37.356;2024-02-28T02:45:45;9.07;;;4.97;;
58238;SDS011;44037;55.638;37.356;2024-02-28T02:48:13;17.10;;;5.97;;
58238;SDS011;44037;55.638;37.356;2024-02-28T02:50:40;12.43;;;6.25;;
58238;SDS011;44037;55.638;37.356;2024-02-28T02:53:08;11.52;;;6.13;;
58238;SDS011;44037;55.638;37.356;2024-02-28T02:55:36;11.18;;;5.53;;
58238;SDS011;44037;55.638;37.356;2024-02-28T02:58:05;14.63;;;7.13;;
58238;SDS011;44037;55.638;37.356;2024-02-28T03:00:33;10.60;;;5.47;;
58238;SDS011;44037;55.638;37.356;2024-02-28T03:03:00;11.38;;;5.18;;
58238;SDS011;44037;55.638;37.356;2024-02-28T03:05:27;10.70;;;6.63;;
58238;SDS011;44037;55.638;37.356;2024-02-28T03:07:55;12.52;;;5.70;;
58238;SDS011;44037;55.638;37.356;2024-02-28T03:10:22;13.10;;;5.93;;
58238;SDS011;44037;55.638;37.356;2024-02-28T03:12:49;12.25;;;5.90;;
58238;SDS011;44037;55.638;37.356;2024-02-28T03:15:18;8.50;;;5.25;;
58238;SDS011;44037;55.638;37.356;2024-02-28T03:17:46;12.38;;;5.78;;
58238;SDS011;44037;55.638;37.356;2024-02-28T03:20:13;9.65;;;5.63;;
58238;SDS011;44037;55.638;37.356;2024-02-28T03:22:41;16.65;;;6.70;;
58238;SDS011;44037;55.638;37.356;2024-02-28T03:25:09;9.85;;;5.95;;
58238;SDS011;44037;55.638;37.356;2024-02-28T03:27:36;12.32;;;6.63;;
58238;SDS011;44037;55.638;37.356;2024-02-28T03:30:04;11.88;;;6.75;;
58238;SDS011;44037;55.638;37.356;2024-02-28T03:32:33;11.02;;;6.75;;
58238;SDS011;44037;55.638;37.356;2024-02-28T03:35:01;10.93;;;5.60;;
58238;SDS011;44037;55.638;37.356;2024-02-28T03:37:30;11.40;;;6.18;;
58238;SDS011;44037;55.638;37.356;2024-02-28T03:39:58;12.15;;;6.00;;
58238;SDS011;44037;55.638;37.356;2024-02-28T03:42:25;11.20;;;5.60;;
58238;SDS011;44037;55.638;37.356;2024-02-28T03:44:53;11.73;;;7.22;;
58238;SDS011;44037;55.638;37.356;2024-02-28T03:47:20;14.35;;;6.45;;
58238;SDS011;44037;55.638;37.356;2024-02-28T03:49:49;8.90;;;5.20;;
58238;SDS011;44037;55.638;37.356;2024-02-28T03:52:17;12.85;;;6.43;;
58238;SDS011;44037;55.638;37.356;2024-02-28T03:54:44;12.60;;;6.88;;
58238;SDS011;44037;55.638;37.356;2024-02-28T03:57:11;12.52;;;6.05;;
58238;SDS011;44037;55.638;37.356;2024-02-28T03:59:40;11.05;;;5.95;;
58238;SDS011;44037;55.638;37.356;2024-02-28T04:02:07;12.20;;;6.20;;
58238;SDS011;44037;55.638;37.356;2024-02-28T04:04:34;11.13;;;5.85;;
58238;SDS011;44037;55.638;37.356;2024-02-28T04:07:03;13.93;;;6.80;;
58238;SDS011;44037;55.638;37.356;2024-02-28T04:09:31;13.57;;;6.18;;
58238;SDS011;44037;55.638;37.356;2024-02-28T04:11:58;16.52;;;6.05;;
58238;SDS011;44037;55.638;37.356;2024-02-28T04:14:25;11.80;;;6.65;;
58238;SDS011;44037;55.638;37.356;2024-02-28T04:16:53;9.90;;;6.40;;
58238;SDS011;44037;55.638;37.356;2024-02-28T04:19:20;12.95;;;6.57;;
58238;SDS011;44037;55.638;37.356;2024-02-28T04:21:47;15.20;;;7.32;;
58238;SDS011;44037;55.638;37.356;2024-02-28T04:24:16;12.82;;;6.93;;
58238;SDS011;44037;55.638;37.356;2024-02-28T04:26:43;13.35;;;6.88;;
58238;SDS011;44037;55.638;37.356;2024-02-28T04:29:11;13.32;;;7.05;;
58238;SDS011;44037;55.638;37.356;2024-02-28T04:31:39;12.70;;;6.90;;
58238;SDS011;44037;55.638;37.356;2024-02-28T04:34:07;14.88;;;6.88;;
58238;SDS011;44037;55.638;37.356;2024-02-28T04:36:34;13.13;;;6.53;;
58238;SDS011;44037;55.638;37.356;2024-02-28T04:39:01;15.23;;;7.47;;
58238;SDS011;44037;55.638;37.356;2024-02-28T04:41:33;13.52;;;7.90;;
58238;SDS011;44037;55.638;37.356;2024-02-28T04:44:00;17.65;;;7.35;;
58238;SDS011;44037;55.638;37.356;2024-02-28T04:46:28;11.88;;;6.10;;
58238;SDS011;44037;55.638;37.356;2024-02-28T04:48:55;13.13;;;7.10;;
58238;SDS011;44037;55.638;37.356;2024-02-28T04:51:23;10.82;;;7.30;;
58238;SDS011;44037;55.638;37.356;2024-02-28T04:53:50;14.05;;;6.88;;
58238;SDS011;44037;55.638;37.356;2024-02-28T04:56:17;14.85;;;6.90;;
58238;SDS011;44037;55.638;37.356;2024-02-28T04:58:46;10.18;;;5.93;;
58238;SDS011;44037;55.638;37.356;2024-02-28T05:01:13;14.85;;;7.15;;
58238;SDS011;44037;55.638;37.356;2024-02-28T05:03:41;11.35;;;5.35;;
58238;SDS011;44037;55.638;37.356;2024-02-28T05:06:08;10.05;;;6.63;;
58238;SDS011;44037;55.638;37.356;2024-02-28T05:08:37;13.82;;;6.43;;
58238;SDS011;44037;55.638;37.356;2024-02-28T05:11:04;10.98;;;6.65;;
58238;SDS011;44037;55.638;37.356;2024-02-28T05:13:31;12.48;;;5.97;;
58238;SDS011;44037;55.638;37.356;2024-02-28T05:16:00;12.93;;;6.80;;
58238;SDS011;44037;55.638;37.356;2024-02-28T05:18:27;17.15;;;7.47;;
58238;SDS011;44037;55.638;37.356;2024-02-28T05:20:55;13.88;;;6.47;;
58238;SDS011;44037;55.638;37.356;2024-02-28T05:23:22;11.73;;;6.72;;
58238;SDS011;44037;55.638;37.356;2024-02-28T05:25:50;15.13;;;7.22;;
58238;SDS011;44037;55.638;37.356;2024-02-28T05:28:17;13.65;;;6.03;;
58238;SDS011;44037;55.638;37.356;2024-02-28T05:30:45;13.05;;;6.82;;
58238;SDS011;44037;55.638;37.356;2024-02-28T05:33:13;11.32;;;6.20;;
58238;SDS011;44037;55.638;37.356;2024-02-28T05:35:41;13.10;;;7.68;;
58238;SDS011;44037;55.638;37.356;2024-02-28T05:38:08;11.63;;;6.13;;
58238;SDS011;44037;55.638;37.356;2024-02-28T05:40:35;13.95;;;7.20;;
58238;SDS011;44037;55.638;37.356;2024-02-28T05:43:02;14.60;;;7.00;;
58238;SDS011;44037;55.638;37.356;2024-02-28T05:45:30;15.07;;;7.18;;
58238;SDS011;44037;55.638;37.356;2024-02-28T05:47:57;12.85;;;6.25;;
58238;SDS011;44037;55.638;37.356;2024-02-28T05:50:26;14.95;;;7.63;;
58238;SDS011;44037;55.638;37.356;2024-02-28T05:52:55;14.38;;;7.30;;
58238;SDS011;44037;55.638;37.356;2024-02-28T05:55:22;15.35;;;6.97;;
58238;SDS011;44037;55.638;37.356;2024-02-28T05:57:51;17.00;;;7.68;;
58238;SDS011;44037;55.638;37.356;2024-02-28T06:00:19;18.67;;;7.85;;
58238;SDS011;44037;55.638;37.356;2024-02-28T06:02:46;13.32;;;7.55;;
58238;SDS011;44037;55.638;37.356;2024-02-28T06:05:13;20.50;;;9.07;;
58238;SDS011;44037;55.638;37.356;2024-02-28T06:07:42;18.67;;;10.02;;
58238;SDS011;44037;55.638;37.356;2024-02-28T06:10:09;19.38;;;8.90;;
58238;SDS011;44037;55.638;37.356;2024-02-28T06:12:37;16.02;;;8.32;;
58238;SDS011;44037;55.638;37.356;2024-02-28T06:15:04;16.05;;;8.43;;
58238;SDS011;44037;55.638;37.356;2024-02-28T06:17:32;16.35;;;8.85;;
58238;SDS011;44037;55.638;37.356;2024-02-28T06:19:59;17.85;;;8.52;;
58238;SDS011;44037;55.638;37.356;2024-02-28T06:22:27;17.25;;;8.48;;
58238;SDS011;44037;55.638;37.356;2024-02-28T06:24:55;15.38;;;8.23;;
58238;SDS011;44037;55.638;37.356;2024-02-28T06:27:23;15.02;;;8.25;;
58238;SDS011;44037;55.638;37.356;2024-02-28T06:29:52;13.15;;;8.13;;
58238;SDS011;44037;55.638;37.356;2024-02-28T06:32:19;15.68;;;8.27;;
58238;SDS011;44037;55.638;37.356;2024-02-28T06:34:47;12.35;;;6.60;;
58238;SDS011;44037;55.638;37.356;2024-02-28T06:37:14;13.82;;;7.63;;
58238;SDS011;44037;55.638;37.356;2024-02-28T06:39:41;13.05;;;7.65;;
58238;SDS011;44037;55.638;37.356;2024-02-28T06:42:10;15.27;;;7.20;;
58238;SDS011;44037;55.638;37.356;2024-02-28T06:44:37;25.63;;;10.52;;
58238;SDS011;44037;55.638;37.356;2024-02-28T06:47:05;14.23;;;8.38;;
58238;SDS011;44037;55.638;37.356;2024-02-28T06:49:32;12.65;;;6.90;;
58238;SDS011;44037;55.638;37.356;2024-02-28T06:51:59;15.10;;;7.20;;
58238;SDS011;44037;55.638;37.356;2024-02-28T06:54:27;12.05;;;7.03;;
58238;SDS011;44037;55.638;37.356;2024-02-28T06:56:54;13.88;;;7.50;;
58238;SDS011;44037;55.638;37.356;2024-02-28T06:59:23;14.60;;;7.47;;
58238;SDS011;44037;55.638;37.356;2024-02-28T07:01:51;13.52;;;7.00;;
58238;SDS011;44037;55.638;37.356;2024-02-28T07:04:18;11.70;;;6.50;;
58238;SDS011;44037;55.638;37.356;2024-02-28T07:06:45;12.45;;;6.82;;
58238;SDS011;44037;55.638;37.356;2024-02-28T07:09:13;11.93;;;6.28;;
58238;SDS011;44037;55.638;37.356;2024-02-28T07:11:40;12.13;;;6.70;;
58238;SDS011;44037;55.638;37.356;2024-02-28T07:14:08;11.40;;;6.15;;
58238;SDS011;44037;55.638;37.356;2024-02-28T07:16:36;11.82;;;6.95;;
58238;SDS011;44037;55.638;37.356;2024-02-28T07:19:04;16.77;;;6.95;;
58238;SDS011;44037;55.638;37.356;2024-02-28T07:21:31;14.00;;;6.88;;
58238;SDS011;44037;55.638;37.356;2024-02-28T07:23:59;12.73;;;6.45;;
58238;SDS011;44037;55.638;37.356;2024-02-28T07:26:26;10.07;;;6.15;;
58238;SDS011;44037;55.638;37.356;2024-02-28T07:28:53;13.88;;;6.22;;
58238;SDS011;44037;55.638;37.356;2024-02-28T07:31:21;14.32;;;6.70;;
58238;SDS011;44037;55.638;37.356;2024-02-28T07:33:50;11.55;;;6.25;;
58238;SDS011;44037;55.638;37.356;2024-02-28T07:36:17;16.20;;;6.45;;
58238;SDS011;44037;55.638;37.356;2024-02-28T07:38:45;10.13;;;5.03;;
58238;SDS011;44037;55.638;37.356;2024-02-28T07:41:12;10.55;;;5.88;;
58238;SDS011;44037;55.638;37.356;2024-02-28T07:43:41;12.30;;;6.45;;
58238;SDS011;44037;55.638;37.356;2024-02-28T07:46:09;12.45;;;5.60;;
58238;SDS011;44037;55.638;37.356;2024-02-28T07:48:37;12.43;;;6.57;;
58238;SDS011;44037;55.638;37.356;2024-02-28T07:51:06;10.20;;;6.07;;
58238;SDS011;44037;55.638;37.356;2024-02-28T07:53:35;11.65;;;6.03;;
58238;SDS011;44037;55.638;37.356;2024-02-28T07:56:02;11.98;;;5.57;;
58238;SDS011;44037;55.638;37.356;2024-02-28T07:58:30;10.02;;;5.95;;
58238;SDS011;44037;55.638;37.356;2024-02-28T08:00:57;11.73;;;5.55;;
58238;SDS011;44037;55.638;37.356;2024-02-28T08:03:24;9.90;;;5.22;;
58238;SDS011;44037;55.638;37.356;2024-02-28T08:05:53;13.52;;;5.47;;
58238;SDS011;44037;55.638;37.356;2024-02-28T08:08:22;12.65;;;5.72;;
58238;SDS011;44037;55.638;37.356;2024-02-28T08:10:49;10.80;;;5.82;;
58238;SDS011;44037;55.638;37.356;2024-02-28T08:13:18;11.77;;;5.72;;
58238;SDS011;44037;55.638;37.356;2024-02-28T08:15:45;11.10;;;5.38;;
58238;SDS011;44037;55.638;37.356;2024-02-28T08:18:13;10.98;;;5.85;;
58238;SDS011;44037;55.638;37.356;2024-02-28T08:20:40;10.48;;;6.20;;
58238;SDS011;44037;55.638;37.356;2024-02-28T08:23:08;11.50;;;6.15;;
58238;SDS011;44037;55.638;37.356;2024-02-28T08:25:37;13.05;;;5.30;;
58238;SDS011;44037;55.638;37.356;2024-02-28T08:28:04;11.55;;;6.22;;
58238;SDS011;44037;55.638;37.356;2024-02-28T08:30:33;8.68;;;5.55;;
58238;SDS011;44037;55.638;37.356;2024-02-28T08:33:00;11.23;;;6.10;;
58238;SDS011;44037;55.638;37.356;2024-02-28T08:35:28;13.55;;;6.18;;
58238;SDS011;44037;55.638;37.356;2024-02-28T08:37:55;13.63;;;6.30;;
58238;SDS011;44037;55.638;37.356;2024-02-28T08:40:22;10.05;;;5.47;;
58238;SDS011;44037;55.638;37.356;2024-02-28T08:42:51;13.43;;;5.93;;
58238;SDS011;44037;55.638;37.356;2024-02-28T08:45:19;10.27;;;5.70;;
58238;SDS011;44037;55.638;37.356;2024-02-28T08:47:47;9.30;;;5.60;;
58238;SDS011;44037;55.638;37.356;2024-02-28T08:50:14;9.90;;;5.90;;
58238;SDS011;44037;55.638;37.356;2024-02-28T08:52:42;13.85;;;6.07;;
58238;SDS011;44037;55.638;37.356;2024-02-28T08:55:10;9.93;;;6.00;;
58238;SDS011;44037;55.638;37.356;2024-02-28T08:57:37;13.88;;;6.35;;
58238;SDS011;44037;55.638;37.356;2024-02-28T09:00:07;10.63;;;6.07;;
58238;SDS011;44037;55.638;37.356;2024-02-28T09:02:35;11.07;;;6.30;;
58238;SDS011;44037;55.638;37.356;2024-02-28T09:05:03;12.93;;;6.03;;
58238;SDS011;44037;55.638;37.356;2024-02-28T09:07:31;9.65;;;5.63;;
58238;SDS011;44037;55.638;37.356;2024-02-28T09:10:01;10.43;;;5.95;;
58238;SDS011;44037;55.638;37.356;2024-02-28T09:12:30;15.32;;;7.30;;
58238;SDS011;44037;55.638;37.356;2024-02-28T09:14:57;13.43;;;6.90;;
58238;SDS011;44037;55.638;37.356;2024-02-28T09:17:26;12.00;;;6.65;;
58238;SDS011;44037;55.638;37.356;2024-02-28T09:19:54;13.30;;;6.07;;
58238;SDS011;44037;55.638;37.356;2024-02-28T09:22:21;11.00;;;5.85;;
58238;SDS011;44037;55.638;37.356;2024-02-28T09:24:50;12.85;;;6.32;;
58238;SDS011;44037;55.638;37.356;2024-02-28T09:27:18;13.82;;;6.60;;
58238;SDS011;44037;55.638;37.356;2024-02-28T09:29:45;16.08;;;6.25;;
58238;SDS011;44037;55.638;37.356;2024-02-28T09:32:12;12.70;;;6.75;;
58238;SDS011;44037;55.638;37.356;2024-02-28T09:34:41;10.02;;;6.05;;
58238;SDS011;44037;55.638;37.356;2024-02-28T09:37:08;13.02;;;6.57;;
58238;SDS011;44037;55.638;37.356;2024-02-28T09:39:37;10.45;;;5.68;;
58238;SDS011;44037;55.638;37.356;2024-02-28T09:42:05;8.73;;;5.32;;
58238;SDS011;44037;55.638;37.356;2024-02-28T09:44:33;10.43;;;5.95;;
58238;SDS011;44037;55.638;37.356;2024-02-28T09:47:01;11.57;;;6.18;;
58238;SDS011;44037;55.638;37.356;2024-02-28T09:49:28;10.82;;;6.30;;
58238;SDS011;44037;55.638;37.356;2024-02-28T09:52:00;10.60;;;6.50;;
58238;SDS011;44037;55.638;37.356;2024-02-28T09:54:28;8.82;;;6.20;;
58238;SDS011;44037;55.638;37.356;2024-02-28T09:56:56;11.75;;;6.88;;
58238;SDS011;44037;55.638;37.356;2024-02-28T09:59:23;12.35;;;6.45;;
58238;SDS011;44037;55.638;37.356;2024-02-28T10:01:53;10.80;;;6.93;;
58238;SDS011;44037;55.638;37.356;2024-02-28T10:04:23;12.50;;;6.72;;
58238;SDS011;44037;55.638;37.356;2024-02-28T10:06:53;12.73;;;6.65;;
58238;SDS011;44037;55.638;37.356;2024-02-28T10:09:21;10.18;;;5.95;;
58238;SDS011;44037;55.638;37.356;2024-02-28T10:11:49;13.00;;;7.10;;
58238;SDS011;44037;55.638;37.356;2024-02-28T10:14:17;14.13;;;6.78;;
58238;SDS011;44037;55.638;37.356;2024-02-28T10:16:45;14.50;;;7.18;;
58238;SDS011;44037;55.638;37.356;2024-02-28T10:19:12;14.40;;;6.68;;
58238;SDS011;44037;55.638;37.356;2024-02-28T10:21:39;15.38;;;6.95;;
58238;SDS011;44037;55.638;37.356;2024-02-28T10:24:07;10.77;;;7.13;;
58238;SDS011;44037;55.638;37.356;2024-02-28T10:26:43;12.38;;;6.72;;
58238;SDS011;44037;55.638;37.356;2024-02-28T10:29:11;11.07;;;6.90;;
58238;SDS011;44037;55.638;37.356;2024-02-28T10:31:39;12.63;;;7.28;;
58238;SDS011;44037;55.638;37.356;2024-02-28T10:34:07;15.05;;;7.88;;
58238;SDS011;44037;55.638;37.356;2024-02-28T10:36:35;10.10;;;6.65;;
58238;SDS011;44037;55.638;37.356;2024-02-28T10:39:04;14.27;;;8.07;;
58238;SDS011;44037;55.638;37.356;2024-02-28T10:41:32;15.98;;;6.78;;
58238;SDS011;44037;55.638;37.356;2024-02-28T10:44:02;14.13;;;7.47;;
58238;SDS011;44037;55.638;37.356;2024-02-28T10:46:30;14.88;;;7.55;;
58238;SDS011;44037;55.638;37.356;2024-02-28T10:48:58;19.83;;;9.10;;
58238;SDS011;44037;55.638;37.356;2024-02-28T10:51:25;13.90;;;7.50;;
58238;SDS011;44037;55.638;37.356;2024-02-28T10:53:55;14.18;;;7.45;;
58238;SDS011;44037;55.638;37.356;2024-02-28T10:56:29;13.80;;;8.35;;
58238;SDS011;44037;55.638;37.356;2024-02-28T10:58:59;12.80;;;6.88;;
58238;SDS011;44037;55.638;37.356;2024-02-28T11:01:32;15.75;;;7.72;;
58238;SDS011;44037;55.638;37.356;2024-02-28T11:04:01;15.52;;;7.45;;
58238;SDS011;44037;55.638;37.356;2024-02-28T11:06:29;13.07;;;7.25;;
58238;SDS011;44037;55.638;37.356;2024-02-28T11:08:58;11.90;;;7.55;;
58238;SDS011;44037;55.638;37.356;2024-02-28T11:11:29;14.38;;;7.60;;
58238;SDS011;44037;55.638;37.356;2024-02-28T11:13:58;18.75;;;7.97;;
58238;SDS011;44037;55.638;37.356;2024-02-28T11:16:29;15.40;;;8.02;;
58238;SDS011;44037;55.638;37.356;2024-02-28T11:18:57;16.17;;;7.65;;
58238;SDS011;44037;55.638;37.356;2024-02-28T11:21:25;15.57;;;8.85;;
58238;SDS011;44037;55.638;37.356;2024-02-28T11:23:53;19.25;;;9.13;;
58238;SDS011;44037;55.638;37.356;2024-02-28T11:26:25;14.73;;;7.85;;
58238;SDS011;44037;55.638;37.356;2024-02-28T11:28:53;14.98;;;8.10;;
58238;SDS011;44037;55.638;37.356;2024-02-28T11:31:21;16.60;;;7.93;;
58238;SDS011;44037;55.638;37.356;2024-02-28T11:33:50;13.75;;;8.32;;
58238;SDS011;44037;55.638;37.356;2024-02-28T11:36:17;14.13;;;8.18;;
58238;SDS011;44037;55.638;37.356;2024-02-28T11:38:45;20.05;;;8.38;;
58238;SDS011;44037;55.638;37.356;2024-02-28T11:41:13;17.30;;;7.70;;
58238;SDS011;44037;55.638;37.356;2024-02-28T11:43:40;26.30;;;7.25;;
58238;SDS011;44037;55.638;37.356;2024-02-28T11:46:08;12.52;;;6.95;;
58238;SDS011;44037;55.638;37.356;2024-02-28T11:48:36;14.43;;;7.45;;
58238;SDS011;44037;55.638;37.356;2024-02-28T11:51:05;17.75;;;7.63;;
58238;SDS011;44037;55.638;37.356;2024-02-28T11:53:32;12.70;;;7.43;;
58238;SDS011;44037;55.638;37.356;2024-02-28T11:56:00;13.40;;;6.93;;
58238;SDS011;44037;55.638;37.356;2024-02-28T11:58:29;12.05;;;7.88;;
58238;SDS011;44037;55.638;37.356;2024-02-28T12:00:56;17.90;;;7.22;;
58238;SDS011;44037;55.638;37.356;2024-02-28T12:03:23;15.27;;;8.18;;
58238;SDS011;44037;55.638;37.356;2024-02-28T12:05:52;14.48;;;7.10;;
58238;SDS011;44037;55.638;37.356;2024-02-28T12:08:21;13.75;;;6.28;;
58238;SDS011;44037;55.638;37.356;2024-02-28T12:10:48;17.17;;;7.82;;
58238;SDS011;44037;55.638;37.356;2024-02-28T12:13:16;16.88;;;7.80;;
58238;SDS011;44037;55.638;37.356;2024-02-28T12:15:44;16.75;;;8.30;;
58238;SDS011;44037;55.638;37.356;2024-02-28T12:18:13;14.73;;;7.88;;
58238;SDS011;44037;55.638;37.356;2024-02-28T12:20:41;14.55;;;7.57;;
58238;SDS011;44037;55.638;37.356;2024-02-28T12:23:09;18.50;;;8.07;;
58238;SDS011;44037;55.638;37.356;2024-02-28T12:25:37;13.20;;;7.82;;
58238;SDS011;44037;55.638;37.356;2024-02-28T12:28:05;22.58;;;8.25;;
58238;SDS011;44037;55.638;37.356;2024-02-28T12:30:38;15.60;;;7.35;;
58238;SDS011;44037;55.638;37.356;2024-02-28T12:33:07;15.65;;;8.30;;
58238;SDS011;44037;55.638;37.356;2024-02-28T12:35:34;15.27;;;7.90;;
58238;SDS011;44037;55.638;37.356;2024-02-28T12:38:00;18.38;;;8.05;;
58238;SDS011;44037;55.638;37.356;2024-02-28T12:40:28;19.10;;;7.85;;
58238;SDS011;44037;55.638;37.356;2024-02-28T12:42:56;15.70;;;8.23;;
58238;SDS011;44037;55.638;37.356;2024-02-28T12:45:24;16.95;;;8.02;;
58238;SDS011;44037;55.638;37.356;2024-02-28T12:47:51;15.15;;;7.90;;
58238;SDS011;44037;55.638;37.356;2024-02-28T12:50:22;18.30;;;8.40;;
58238;SDS011;44037;55.638;37.356;2024-02-28T12:52:50;13.55;;;7.82;;
58238;SDS011;44037;55.638;37.356;2024-02-28T12:55:19;12.25;;;7.53;;
58238;SDS011;44037;55.638;37.356;2024-02-28T12:57:47;15.90;;;8.27;;
58238;SDS011;44037;55.638;37.356;2024-02-28T13:00:17;13.32;;;7.80;;
58238;SDS011;44037;55.638;37.356;2024-02-28T13:02:45;12.70;;;7.18;;
58238;SDS011;44037;55.638;37.356;2024-02-28T13:05:12;22.33;;;7.88;;
58238;SDS011;44037;55.638;37.356;2024-02-28T13:07:40;17.70;;;7.35;;
58238;SDS011;44037;55.638;37.356;2024-02-28T13:10:07;12.82;;;7.43;;
58238;SDS011;44037;55.638;37.356;2024-02-28T13:12:35;12.93;;;7.38;;
58238;SDS011;44037;55.638;37.356;2024-02-28T13:15:05;14.63;;;7.80;;
58238;SDS011;44037;55.638;37.356;2024-02-28T13:17:34;11.88;;;6.57;;
58238;SDS011;44037;55.638;37.356;2024-02-28T13:20:02;12.75;;;6.60;;
58238;SDS011;44037;55.638;37.356;2024-02-28T13:22:30;13.15;;;7.03;;
58238;SDS011;44037;55.638;37.356;2024-02-28T13:24:58;14.85;;;7.53;;
58238;SDS011;44037;55.638;37.356;2024-02-28T13:27:26;11.57;;;6.75;;
58238;SDS011;44037;55.638;37.356;2024-02-28T13:29:53;16.05;;;7.05;;
58238;SDS011;44037;55.638;37.356;2024-02-28T13:32:21;11.65;;;6.28;;
58238;SDS011;44037;55.638;37.356;2024-02-28T13:34:49;16.73;;;8.57;;
58238;SDS011;44037;55.638;37.356;2024-02-28T13:37:17;13.07;;;6.22;;
58238;SDS011;44037;55.638;37.356;2024-02-28T13:39:44;10.73;;;5.97;;
58238;SDS011;44037;55.638;37.356;2024-02-28T13:42:12;9.57;;;5.50;;
58238;SDS011;44037;55.638;37.356;2024-02-28T13:44:39;14.52;;;7.28;;
58238;SDS011;44037;55.638;37.356;2024-02-28T13:47:08;10.50;;;6.55;;
58238;SDS011;44037;55.638;37.356;2024-02-28T13:49:35;15.82;;;7.63;;
58238;SDS011;44037;55.638;37.356;2024-02-28T13:52:04;12.32;;;6.57;;
58238;SDS011;44037;55.638;37.356;2024-02-28T13:54:32;10.63;;;6.05;;
58238;SDS011;44037;55.638;37.356;2024-02-28T13:57:00;14.27;;;6.38;;
58238;SDS011;44037;55.638;37.356;2024-02-28T13:59:29;14.45;;;7.38;;
58238;SDS011;44037;55.638;37.356;2024-02-28T14:01:57;16.20;;;6.95;;
58238;SDS011;44037;55.638;37.356;2024-02-28T14:04:25;11.20;;;6.72;;
58238;SDS011;44037;55.638;37.356;2024-02-28T14:06:52;16.65;;;6.32;;
58238;SDS011;44037;55.638;37.356;2024-02-28T14:09:21;11.23;;;6.32;;
58238;SDS011;44037;55.638;37.356;2024-02-28T14:11:48;10.40;;;5.80;;
58238;SDS011;44037;55.638;37.356;2024-02-28T14:14:16;10.90;;;6.15;;
58238;SDS011;44037;55.638;37.356;2024-02-28T14:16:43;12.75;;;5.75;;
58238;SDS011;44037;55.638;37.356;2024-02-28T14:19:10;11.27;;;5.95;;
58238;SDS011;44037;55.638;37.356;2024-02-28T14:21:38;12.98;;;6.20;;
58238;SDS011;44037;55.638;37.356;2024-02-28T14:24:05;12.25;;;5.90;;
58238;SDS011;44037;55.638;37.356;2024-02-28T14:26:34;9.65;;;5.78;;